createdAt,value
2018-09-10T00:00:30.777Z,98647.91
2018-09-10T00:02:59.221Z,98652.03
2018-09-10T00:05:27.684Z,98647.97
2018-09-10T00:07:56.128Z,98646.75
2018-09-10T00:10:24.612Z,98655.73
2018-09-10T00:12:53.054Z,98650.02
2018-09-10T00:15:21.520Z,98654.16
2018-09-10T00:17:49.975Z,98657.67
2018-09-10T00:20:18.480Z,98652.23
2018-09-10T00:22:46.946Z,98657.11
2018-09-10T00:25:15.400Z,98653.76
2018-09-10T00:27:43.863Z,98657.45
2018-09-10T00:30:12.361Z,98657.06
2018-09-10T00:32:40.850Z,98663.02
2018-09-10T00:35:09.316Z,98668.09
2018-09-10T00:37:37.769Z,98670.47
2018-09-10T00:40:06.293Z,98669.72
2018-09-10T00:42:34.751Z,98667.95
2018-09-10T00:45:03.298Z,98675.56
2018-09-10T00:47:31.725Z,98674.11
2018-09-10T00:50:00.215Z,98673.40
2018-09-10T00:52:28.658Z,98668.47
2018-09-10T00:54:57.139Z,98668.91
2018-09-10T00:57:25.587Z,98669.45
2018-09-10T00:59:54.165Z,98667.80
2018-09-10T01:02:22.580Z,98670.55
2018-09-10T01:04:51.062Z,98673.16
2018-09-10T01:07:19.526Z,98677.06
2018-09-10T01:09:48.065Z,98678.20
2018-09-10T01:12:16.524Z,98671.09
2018-09-10T01:14:45.043Z,98670.73
2018-09-10T01:17:13.488Z,98666.72
2018-09-10T01:19:41.937Z,98663.67
2018-09-10T01:22:10.373Z,98662.34
2018-09-10T01:24:38.864Z,98659.94
2018-09-10T01:27:07.310Z,98664.70
2018-09-10T01:29:35.758Z,98665.89
2018-09-10T01:32:04.237Z,98663.52
2018-09-10T01:34:38.090Z,98666.72
2018-09-10T01:37:06.525Z,98661.59
2018-09-10T01:39:35.007Z,98662.80
2018-09-10T01:42:03.467Z,98657.09
2018-09-10T01:44:31.897Z,98665.05
2018-09-10T01:47:00.443Z,98668.45
2018-09-10T01:49:28.885Z,98662.05
2018-09-10T01:51:57.365Z,98655.34
2018-09-10T01:54:25.809Z,98661.61
2018-09-10T01:56:54.308Z,98654.55
2018-09-10T01:59:22.788Z,98663.92
2018-09-10T02:01:51.270Z,98660.42
2018-09-10T02:04:19.713Z,98652.52
2018-09-10T02:06:48.187Z,98649.80
2018-09-10T02:09:16.638Z,98647.17
2018-09-10T02:11:45.125Z,98644.72
2018-09-10T02:14:13.569Z,98645.81
2018-09-10T02:16:42.045Z,98650.08
2018-09-10T02:19:10.505Z,98646.91
2018-09-10T02:21:38.989Z,98648.22
2018-09-10T02:24:07.510Z,98646.45
2018-09-10T02:26:36.005Z,98638.42
2018-09-10T02:29:04.483Z,98640.34
2018-09-10T02:31:32.973Z,98641.60
2018-09-10T02:34:01.438Z,98638.94
2018-09-10T02:36:29.892Z,98635.97
2018-09-10T02:38:58.411Z,98634.86
2018-09-10T02:41:26.914Z,98636.20
2018-09-10T02:43:55.369Z,98630.39
2018-09-10T02:46:23.870Z,98635.61
2018-09-10T02:48:52.318Z,98643.46
2018-09-10T02:51:20.844Z,98645.91
2018-09-10T02:53:49.314Z,98641.09
2018-09-10T02:56:17.798Z,98644.74
2018-09-10T02:58:46.241Z,98648.16
2018-09-10T03:01:14.755Z,98651.44
2018-09-10T03:03:43.178Z,98647.84
2018-09-10T03:06:11.636Z,98649.12
2018-09-10T03:08:40.073Z,98644.52
2018-09-10T03:11:08.521Z,98645.54
2018-09-10T03:13:36.966Z,98647.70
2018-09-10T03:16:05.466Z,98641.47
2018-09-10T03:18:33.892Z,98649.50
2018-09-10T03:21:02.548Z,98646.31
2018-09-10T03:23:31.001Z,98644.97
2018-09-10T03:25:59.428Z,98637.37
2018-09-10T03:28:27.910Z,98645.94
2018-09-10T03:30:56.393Z,98646.45
2018-09-10T03:33:24.957Z,98645.56
2018-09-10T03:35:53.362Z,98647.88
2018-09-10T03:38:21.821Z,98660.34
2018-09-10T03:40:50.286Z,98664.30
2018-09-10T03:43:18.765Z,98665.31
2018-09-10T03:45:47.235Z,98664.14
2018-09-10T03:48:15.746Z,98662.70
2018-09-10T03:50:44.190Z,98661.66
2018-09-10T03:53:12.664Z,98666.11
2018-09-10T03:55:41.104Z,98661.91
2018-09-10T03:58:09.625Z,98668.78
2018-09-10T04:00:38.053Z,98660.23
2018-09-10T04:03:06.557Z,98663.86
2018-09-10T04:05:35.041Z,98665.74
2018-09-10T04:08:03.805Z,98672.64
2018-09-10T04:10:32.253Z,98670.93
2018-09-10T04:13:00.760Z,98665.80
2018-09-10T04:15:29.216Z,98664.62
2018-09-10T04:17:57.669Z,98665.83
2018-09-10T04:20:26.112Z,98665.95
2018-09-10T04:22:54.581Z,98663.67
2018-09-10T04:25:23.073Z,98661.56
2018-09-10T04:27:51.545Z,98669.59
2018-09-10T04:30:20.009Z,98667.66
2018-09-10T04:32:48.518Z,98673.23
2018-09-10T04:35:17.003Z,98678.80
2018-09-10T04:37:45.469Z,98687.23
2018-09-10T04:40:13.954Z,98691.95
2018-09-10T04:42:42.419Z,98694.77
2018-09-10T04:45:10.905Z,98699.96
2018-09-10T04:47:39.396Z,98702.95
2018-09-10T04:50:07.889Z,98702.22
2018-09-10T04:52:36.388Z,98707.72
2018-09-10T04:55:05.021Z,98708.94
2018-09-10T04:57:33.513Z,98699.52
2018-09-10T05:00:01.951Z,98700.50
2018-09-10T05:02:30.440Z,98703.66
2018-09-10T05:04:58.884Z,98707.85
2018-09-10T05:07:27.383Z,98705.56
2018-09-10T05:09:55.947Z,98706.03
2018-09-10T05:12:27.386Z,98707.36
2018-09-10T05:14:55.823Z,98705.66
2018-09-10T05:17:24.355Z,98712.08
2018-09-10T05:19:52.817Z,98714.68
2018-09-10T05:22:21.540Z,98713.35
2018-09-10T05:24:49.997Z,98709.25
2018-09-10T05:27:18.425Z,98718.17
2018-09-10T05:29:46.948Z,98725.83
2018-09-10T05:32:15.406Z,98731.14
2018-09-10T05:34:43.882Z,98730.48
2018-09-10T05:37:12.425Z,98731.33
2018-09-10T05:39:40.931Z,98732.74
2018-09-10T05:42:09.677Z,98731.08
2018-09-10T05:44:38.147Z,98735.67
2018-09-10T05:47:23.831Z,98728.62
2018-09-10T05:49:53.077Z,98741.17
2018-09-10T05:52:21.601Z,98739.72
2018-09-10T05:54:50.421Z,98740.52
2018-09-10T05:57:18.872Z,98738.86
2018-09-10T05:59:47.347Z,98743.28
2018-09-10T06:02:15.833Z,98749.07
2018-09-10T06:04:44.677Z,98744.52
2018-09-10T06:07:13.132Z,98741.93
2018-09-10T06:09:41.717Z,98749.70
2018-09-10T06:12:10.160Z,98752.09
2018-09-10T06:14:38.629Z,98762.78
2018-09-10T06:17:07.147Z,98763.27
2018-09-10T06:19:35.641Z,98768.86
2018-09-10T06:22:04.114Z,98761.11
2018-09-10T06:24:32.602Z,98767.52
2018-09-10T06:27:01.121Z,98777.77
2018-09-10T06:29:29.673Z,98773.66
2018-09-10T06:31:58.144Z,98774.14
2018-09-10T06:34:26.713Z,98772.27
2018-09-10T06:36:55.259Z,98771.14
2018-09-10T06:39:23.737Z,98778.34
2018-09-10T06:41:52.233Z,98774.17
2018-09-10T06:44:20.740Z,98772.96
2018-09-10T06:46:49.223Z,98775.27
2018-09-10T06:49:17.726Z,98779.58
2018-09-10T06:51:46.180Z,98772.77
2018-09-10T06:54:14.693Z,98769.30
2018-09-10T07:03:45.372Z,98779.17
2018-09-10T07:06:13.936Z,98781.67
2018-09-10T07:08:42.450Z,98772.02
2018-09-10T07:11:12.031Z,98765.48
2018-09-10T07:13:41.107Z,98761.80
2018-09-10T07:16:09.704Z,98764.98
2018-09-10T07:18:38.302Z,98763.37
2018-09-10T07:21:06.749Z,98765.16
2018-09-10T07:23:35.230Z,98767.24
2018-09-10T07:26:03.766Z,98761.98
2018-09-10T07:28:32.349Z,98771.69
2018-09-10T07:31:00.923Z,98770.87
2018-09-10T07:33:30.366Z,98777.01
2018-09-10T07:35:58.904Z,98779.99
2018-09-10T07:38:27.468Z,98773.28
2018-09-10T07:40:56.004Z,98762.34
2018-09-10T07:43:24.556Z,98761.67
2018-09-10T07:45:53.062Z,98771.16
2018-09-10T07:48:21.550Z,98771.92
2018-09-10T07:50:50.082Z,98767.38
2018-09-10T07:53:18.594Z,98769.19
2018-09-10T07:55:47.094Z,98775.67
2018-09-10T07:58:15.586Z,98779.59
2018-09-10T08:00:44.163Z,98783.89
2018-09-10T08:03:12.626Z,98787.94
2018-09-10T08:05:41.109Z,98794.41
2018-09-10T08:08:09.595Z,98804.08
2018-09-10T08:10:38.101Z,98809.84
2018-09-10T08:13:06.585Z,98811.06
2018-09-10T08:15:35.104Z,98809.94
2018-09-10T08:18:03.636Z,98809.09
2018-09-10T08:20:32.755Z,98820.06
2018-09-10T08:23:01.290Z,98821.52
2018-09-10T08:25:29.789Z,98816.66
2018-09-10T08:27:58.249Z,98810.56
2018-09-10T08:30:26.857Z,98813.63
2018-09-10T08:32:55.309Z,98805.28
2018-09-10T08:35:29.661Z,98805.39
2018-09-10T08:37:58.644Z,98799.07
2018-09-10T08:40:27.169Z,98804.24
2018-09-10T08:42:55.701Z,98799.41
2018-09-10T08:45:24.273Z,98794.38
2018-09-10T08:47:52.818Z,98801.98
2018-09-10T08:50:21.846Z,98797.48
2018-09-10T08:52:51.206Z,98789.06
2018-09-10T08:55:19.696Z,98796.98
2018-09-10T08:57:48.211Z,98790.44
2018-09-10T09:00:16.720Z,98792.06
2018-09-10T09:05:40.065Z,98790.31
2018-09-10T09:08:08.719Z,98785.30
2018-09-10T09:10:38.001Z,98781.48
2018-09-10T09:13:06.533Z,98776.98
2018-09-10T09:15:34.988Z,98788.97
2018-09-10T09:18:05.969Z,98783.25
2018-09-10T09:20:34.522Z,98784.98
2018-09-10T09:23:03.753Z,98781.83
2018-09-10T09:25:32.221Z,98782.13
2018-09-10T09:28:01.345Z,98768.91
2018-09-10T09:30:29.878Z,98773.13
2018-09-10T09:32:58.489Z,98767.02
2018-09-10T09:35:32.268Z,98758.25
2018-09-10T09:38:05.987Z,98758.55
2018-09-10T09:40:39.722Z,98763.49
2018-09-10T09:43:13.635Z,98756.70
2018-09-10T09:45:47.336Z,98750.05
2018-09-10T09:48:15.847Z,98758.09
2018-09-10T09:50:44.394Z,98756.09
2018-09-10T09:53:12.899Z,98757.59
2018-09-10T09:55:41.374Z,98767.97
2018-09-10T09:58:10.696Z,98769.67
2018-09-10T10:00:44.395Z,98771.95
2018-09-10T10:03:18.202Z,98771.85
2018-09-10T10:05:46.707Z,98768.39
2018-09-10T10:08:15.216Z,98768.13
2018-09-10T10:10:43.677Z,98764.22
2018-09-10T10:13:12.161Z,98759.03
2018-09-10T10:15:40.616Z,98760.91
2018-09-10T10:18:09.136Z,98767.91
2018-09-10T10:20:37.667Z,98763.72
2018-09-10T10:23:06.205Z,98758.09
2018-09-10T10:25:34.662Z,98758.45
2018-09-10T10:28:03.148Z,98755.00
2018-09-10T10:30:31.600Z,98752.28
2018-09-10T10:33:00.077Z,98753.49
2018-09-10T10:35:28.569Z,98733.20
2018-09-10T10:37:57.987Z,98739.50
2018-09-10T10:40:26.477Z,98747.72
2018-09-10T10:42:54.983Z,98748.52
2018-09-10T10:45:23.825Z,98742.48
2018-09-10T10:47:52.334Z,98731.11
2018-09-10T10:50:20.820Z,98728.31
2018-09-10T10:52:49.312Z,98730.78
2018-09-10T10:55:17.858Z,98730.36
2018-09-10T10:57:46.345Z,98725.34
2018-09-10T11:00:15.371Z,98728.78
2018-09-10T11:02:43.821Z,98719.77
2018-09-10T11:05:12.369Z,98731.44
2018-09-10T11:07:40.825Z,98721.99
2018-09-10T11:10:09.562Z,98729.45
2018-09-10T11:12:38.085Z,98711.08
2018-09-10T11:15:06.630Z,98720.14
2018-09-10T11:17:35.099Z,98709.67
2018-09-10T11:20:03.605Z,98711.42
2018-09-10T11:22:32.091Z,98712.02
2018-09-10T11:25:00.606Z,98713.52
2018-09-10T11:27:29.095Z,98707.47
2018-09-10T11:29:57.589Z,98712.77
2018-09-10T11:32:26.109Z,98704.77
2018-09-10T11:34:54.641Z,98699.15
2018-09-10T11:37:23.156Z,98698.77
2018-09-10T11:39:51.750Z,98697.63
2018-09-10T11:42:22.188Z,98686.70
2018-09-10T11:44:51.004Z,98681.64
2018-09-10T11:47:19.493Z,98673.30
2018-09-10T11:49:47.962Z,98679.94
2018-09-10T11:52:16.416Z,98669.35
2018-09-10T11:54:44.880Z,98675.32
2018-09-10T11:57:13.381Z,98672.20
2018-09-10T11:59:41.883Z,98670.37
2018-09-10T12:02:10.460Z,98666.73
2018-09-10T12:04:39.024Z,98664.06
2018-09-10T12:07:07.498Z,98665.05
2018-09-10T12:09:35.973Z,98665.48
2018-09-10T12:12:04.489Z,98661.41
2018-09-10T12:14:33.009Z,98651.58
2018-09-10T12:17:01.453Z,98659.78
2018-09-10T12:19:30.024Z,98654.20
2018-09-10T12:21:58.528Z,98654.78
2018-09-10T12:24:27.155Z,98653.02
2018-09-10T12:26:55.672Z,98656.11
2018-09-10T12:29:24.154Z,98656.36
2018-09-10T12:31:56.063Z,98654.83
2018-09-10T12:34:24.637Z,98650.75
2018-09-10T12:36:53.120Z,98659.02
2018-09-10T12:39:21.593Z,98653.23
2018-09-10T12:41:50.090Z,98642.11
2018-09-10T12:44:18.538Z,98641.94
2018-09-10T12:46:47.005Z,98643.97
2018-09-10T12:49:15.499Z,98647.55
2018-09-10T12:51:44.031Z,98644.77
2018-09-10T12:54:12.558Z,98630.58
2018-09-10T12:56:41.061Z,98631.89
2018-09-10T12:59:09.514Z,98625.22
2018-09-10T13:01:37.996Z,98629.13
2018-09-10T13:04:06.852Z,98625.52
2018-09-10T13:06:35.313Z,98620.76
2018-09-10T13:09:04.708Z,98624.51
2018-09-10T13:11:33.174Z,98619.07
2018-09-10T13:14:01.896Z,98615.13
2018-09-10T13:16:30.387Z,98623.16
2018-09-10T13:18:58.877Z,98614.89
2018-09-10T13:21:27.348Z,98616.61
2018-09-10T13:23:55.814Z,98616.83
2018-09-10T13:26:24.294Z,98607.55
2018-09-10T13:28:52.861Z,98606.52
2018-09-10T13:31:21.362Z,98612.96
2018-09-10T13:33:49.862Z,98604.11
2018-09-10T13:36:18.391Z,98600.60
2018-09-10T13:38:46.853Z,98602.13
2018-09-10T13:41:15.427Z,98596.25
2018-09-10T13:43:43.905Z,98596.84
2018-09-10T13:46:13.109Z,98590.91
2018-09-10T13:48:41.576Z,98594.58
2018-09-10T13:51:10.074Z,98582.56
2018-09-10T13:53:38.567Z,98588.89
2018-09-10T13:56:07.094Z,98587.95
2018-09-10T13:58:35.521Z,98589.67
2018-09-10T14:01:04.005Z,98585.03
2018-09-10T14:03:34.828Z,98587.23
2018-09-10T14:06:05.086Z,98580.30
2018-09-10T14:08:33.631Z,98591.83
2018-09-10T14:11:02.193Z,98588.30
2018-09-10T14:13:30.665Z,98591.31
2018-09-10T14:15:59.113Z,98584.17
2018-09-10T14:18:27.578Z,98583.89
2018-09-10T14:20:56.074Z,98575.97
2018-09-10T14:23:24.541Z,98569.77
2018-09-10T14:25:53.153Z,98575.14
2018-09-10T14:28:21.673Z,98573.09
2018-09-10T14:30:50.507Z,98572.67
2018-09-10T14:33:18.984Z,98571.75
2018-09-10T14:35:47.482Z,98565.15
2018-09-10T14:38:16.035Z,98568.84
2018-09-10T14:40:44.533Z,98565.72
2018-09-10T14:43:13.066Z,98563.50
2018-09-10T14:45:41.540Z,98567.02
2018-09-10T14:48:10.033Z,98579.52
2018-09-10T14:50:38.552Z,98580.67
2018-09-10T14:53:07.090Z,98577.25
2018-09-10T14:55:35.576Z,98584.47
2018-09-10T14:58:04.902Z,98579.73
2018-09-10T15:00:33.356Z,98584.45
2018-09-10T15:03:01.902Z,98593.14
2018-09-10T15:05:30.370Z,98594.88
2018-09-10T15:07:58.870Z,98595.81
2018-09-10T15:10:27.348Z,98590.93
2018-09-10T15:12:55.890Z,98597.04
2018-09-10T15:15:24.357Z,98596.54
2018-09-10T15:17:52.878Z,98581.40
2018-09-10T15:20:21.463Z,98583.64
2018-09-10T15:22:49.974Z,98589.62
2018-09-10T15:25:18.459Z,98583.64
2018-09-10T15:27:47.003Z,98586.43
2018-09-10T15:30:15.563Z,98579.61
2018-09-10T15:32:44.057Z,98579.59
2018-09-10T15:35:12.510Z,98580.14
2018-09-10T15:37:41.048Z,98571.53
2018-09-10T15:40:09.549Z,98569.52
2018-09-10T15:42:38.021Z,98568.04
2018-09-10T15:45:06.604Z,98572.73
2018-09-10T15:47:35.103Z,98576.45
2018-09-10T15:50:04.423Z,98570.88
2018-09-10T15:52:33.052Z,98574.91
2018-09-10T15:55:01.518Z,98574.80
2018-09-10T15:57:30.041Z,98574.25
2018-09-10T15:59:58.533Z,98573.91
2018-09-10T16:02:39.518Z,98578.09
2018-09-10T16:05:08.011Z,98581.66
2018-09-10T16:07:38.957Z,98589.03
2018-09-10T16:10:07.558Z,98596.86
2018-09-10T16:12:36.677Z,98593.57
2018-09-10T16:15:06.231Z,98593.42
2018-09-10T16:17:34.730Z,98591.18
2018-09-10T16:20:03.238Z,98602.98
2018-09-10T16:22:31.757Z,98603.98
2018-09-10T16:25:00.444Z,98605.47
2018-09-10T16:27:29.049Z,98608.08
2018-09-10T16:29:57.490Z,98607.41
2018-09-10T16:32:25.962Z,98607.94
2018-09-10T16:34:54.548Z,98600.95
2018-09-10T16:37:23.009Z,98611.33
2018-09-10T16:39:51.652Z,98612.58
2018-09-10T16:42:20.113Z,98609.70
2018-09-10T16:44:48.631Z,98613.27
2018-09-10T16:47:17.085Z,98610.41
2018-09-10T16:49:45.623Z,98612.88
2018-09-10T16:52:14.113Z,98607.65
2018-09-10T16:54:42.700Z,98611.08
2018-09-10T16:57:11.117Z,98609.22
2018-09-10T16:59:39.618Z,98611.75
2018-09-10T17:02:08.245Z,98609.81
2018-09-10T17:04:36.733Z,98602.62
2018-09-10T17:07:05.215Z,98606.78
2018-09-10T17:09:33.721Z,98604.39
2018-09-10T17:12:02.261Z,98604.78
2018-09-10T17:14:30.812Z,98600.70
2018-09-10T17:16:59.305Z,98602.03
2018-09-10T17:19:28.096Z,98608.33
2018-09-10T17:21:56.585Z,98594.22
2018-09-10T17:24:25.109Z,98595.06
2018-09-10T17:26:53.586Z,98602.49
2018-09-10T17:29:22.082Z,98597.16
2018-09-10T17:31:50.608Z,98596.93
2018-09-10T17:34:19.132Z,98602.08
2018-09-10T17:36:48.106Z,98608.19
2018-09-10T17:39:17.221Z,98615.20
2018-09-10T17:41:45.697Z,98616.92
2018-09-10T17:44:14.224Z,98617.77
2018-09-10T17:46:42.747Z,98623.22
2018-09-10T17:49:11.247Z,98624.34
2018-09-10T17:51:39.796Z,98625.77
2018-09-10T17:54:08.276Z,98622.50
2018-09-10T17:56:36.780Z,98627.98
2018-09-10T18:00:34.471Z,98633.65
2018-09-10T18:03:02.959Z,98634.63
2018-09-10T18:05:31.464Z,98636.37
2018-09-10T18:07:59.915Z,98633.14
2018-09-10T18:10:28.460Z,98631.97
2018-09-10T18:12:56.937Z,98643.45
2018-09-10T18:15:25.429Z,98642.09
2018-09-10T18:17:53.861Z,98646.78
2018-09-10T18:20:22.432Z,98650.03
2018-09-10T18:22:50.865Z,98640.58
2018-09-10T18:25:19.357Z,98645.75
2018-09-10T18:27:47.831Z,98643.05
2018-09-10T18:30:16.329Z,98644.94
2018-09-10T18:32:44.821Z,98649.01
2018-09-10T18:35:13.379Z,98646.55
2018-09-10T18:37:41.861Z,98655.00
2018-09-10T18:40:10.404Z,98655.00
2018-09-10T18:42:38.905Z,98659.67
2018-09-10T18:45:07.586Z,98650.36
2018-09-10T18:47:36.131Z,98650.69
2018-09-10T18:50:04.729Z,98657.72
2018-09-10T18:52:33.236Z,98652.61
2018-09-10T18:55:01.752Z,98646.73
2018-09-10T18:57:30.250Z,98648.73
2018-09-10T18:59:58.749Z,98656.08
2018-09-10T19:02:27.241Z,98652.56
2018-09-10T19:04:55.738Z,98663.99
2018-09-10T19:07:24.287Z,98668.31
2018-09-10T19:09:53.657Z,98671.28
2018-09-10T19:12:22.189Z,98672.41
2018-09-10T19:14:50.707Z,98675.37
2018-09-10T19:17:20.645Z,98670.47
2018-09-10T19:19:49.125Z,98669.14
2018-09-10T19:22:17.723Z,98674.03
2018-09-10T19:24:52.423Z,98657.80
2018-09-10T19:27:20.957Z,98645.08
2018-09-10T19:29:49.461Z,98655.08
2018-09-10T19:32:17.955Z,98661.06
2018-09-10T19:34:46.519Z,98657.80
2018-09-10T19:37:15.018Z,98671.09
2018-09-10T19:39:43.541Z,98669.47
2018-09-10T19:42:12.043Z,98674.34
2018-09-10T19:44:40.602Z,98675.99
2018-09-10T19:47:09.126Z,98680.86
2018-09-10T19:49:37.635Z,98683.56
2018-09-10T19:52:06.298Z,98687.09
2018-09-10T19:54:34.770Z,98693.30
2018-09-10T19:57:03.286Z,98697.60
2018-09-10T19:59:31.860Z,98696.23
2018-09-10T20:02:00.369Z,98708.14
2018-09-10T20:04:28.868Z,98702.45
2018-09-10T20:06:57.349Z,98704.08
2018-09-10T20:09:25.900Z,98709.20
2018-09-10T20:11:54.401Z,98715.13
2018-09-10T20:14:22.948Z,98719.72
2018-09-10T20:16:51.567Z,98717.30
2018-09-10T20:19:20.051Z,98702.66
2018-09-10T20:21:48.619Z,98687.72
2018-09-10T20:24:17.174Z,98702.31
2018-09-10T20:26:45.697Z,98706.81
2018-09-10T20:29:14.206Z,98705.02
2018-09-10T20:31:42.722Z,98715.24
2018-09-10T20:34:11.187Z,98723.74
2018-09-10T20:36:40.078Z,98729.24
2018-09-10T20:39:10.695Z,98716.04
2018-09-10T20:41:39.479Z,98714.11
2018-09-10T20:44:12.058Z,98707.58
2018-09-10T20:46:40.757Z,98708.66
2018-09-10T20:49:09.233Z,98711.42
2018-09-10T20:51:37.900Z,98718.80
2018-09-10T20:54:06.378Z,98724.23
2018-09-10T20:56:34.889Z,98720.23
2018-09-10T20:59:03.354Z,98716.98
2018-09-10T21:01:45.581Z,98713.89
2018-09-10T21:04:14.140Z,98711.58
2018-09-10T21:06:44.710Z,98706.33
2018-09-10T21:09:13.174Z,98702.98
2018-09-10T21:11:42.407Z,98703.91
2018-09-10T21:14:10.889Z,98712.02
2018-09-10T21:16:40.138Z,98715.88
2018-09-10T21:19:08.602Z,98708.69
2018-09-10T21:21:43.355Z,98703.69
2018-09-10T21:24:11.863Z,98707.47
2018-09-10T21:26:44.355Z,98709.14
2018-09-10T21:29:12.997Z,98704.53
2018-09-10T21:31:41.516Z,98698.30
2018-09-10T21:34:10.265Z,98712.67
2018-09-10T21:36:38.778Z,98714.52
2018-09-10T21:39:09.159Z,98712.34
2018-09-10T21:41:37.694Z,98710.75
2018-09-10T21:44:06.444Z,98719.69
2018-09-10T21:46:34.926Z,98723.81
2018-09-10T21:49:03.686Z,98720.58
2018-09-10T21:51:32.260Z,98721.37
2018-09-10T21:54:01.030Z,98717.61
2018-09-10T21:56:29.499Z,98718.94
2018-09-10T21:58:58.048Z,98718.96
2018-09-10T22:01:26.552Z,98716.53
2018-09-10T22:03:55.072Z,98725.94
2018-09-10T22:06:23.593Z,98724.03
2018-09-10T22:08:52.141Z,98725.04
2018-09-10T22:11:20.603Z,98726.07
2018-09-10T22:13:49.456Z,98731.47
2018-09-10T22:16:18.460Z,98729.56
2018-09-10T22:18:46.956Z,98722.02
2018-09-10T22:21:15.463Z,98716.88
2018-09-10T22:23:44.003Z,98714.94
2018-09-10T22:33:13.947Z,98719.41
2018-09-10T22:35:42.399Z,98715.25
2018-09-10T22:38:10.940Z,98710.11
2018-09-10T22:40:39.393Z,98715.63
2018-09-10T22:43:07.932Z,98714.88
2018-09-10T22:45:36.456Z,98721.02
2018-09-10T22:48:05.238Z,98718.81
2018-09-10T22:50:33.761Z,98718.80
2018-09-10T22:53:02.311Z,98726.27
2018-09-10T22:55:30.805Z,98719.52
2018-09-10T22:57:59.290Z,98717.72
2018-09-10T23:00:27.772Z,98717.64
2018-09-10T23:02:56.305Z,98719.77
2018-09-10T23:05:24.752Z,98716.81
2018-09-10T23:07:53.233Z,98726.70
2018-09-10T23:10:21.682Z,98724.25
2018-09-10T23:12:50.179Z,98731.88
2018-09-10T23:15:18.664Z,98735.58
2018-09-10T23:17:47.231Z,98743.73
2018-09-10T23:20:15.740Z,98751.30
2018-09-10T23:22:44.294Z,98745.20
2018-09-10T23:25:12.839Z,98751.53
2018-09-10T23:27:41.322Z,98761.78
2018-09-10T23:30:09.805Z,98756.34
2018-09-10T23:32:38.374Z,98756.61
2018-09-10T23:35:06.884Z,98755.27
2018-09-10T23:37:35.321Z,98755.30
2018-09-10T23:40:03.871Z,98763.09
2018-09-10T23:42:32.330Z,98761.08
2018-09-10T23:45:00.859Z,98760.38
2018-09-10T23:47:29.293Z,98754.94
2018-09-10T23:49:57.794Z,98756.02
2018-09-10T23:52:26.316Z,98755.38
2018-09-10T23:54:54.841Z,98757.03
2018-09-10T23:57:23.372Z,98753.72
2018-09-10T23:59:51.898Z,98743.27
